Time;durP1;ratioP1;P1;durP2;ratioP2;P2;SDS_P1;SDS_P2;PMS_P1;PMS_P2;Temp;Humidity;BMP_temperature;BMP_pressure;BME280_temperature;BME280_humidity;BME280_pressure;Samples;Min_cycle;Max_cycle;Signal;HPM_P1;HPM_P2
2022/01/31 00:01:11;;;;;;;11.45;2.35;;;;;;;1.97;54.58;98514.47;2638341;28;20043;-83
2022/01/31 00:02:27;;;;;;;14.27;2.67;;;;;;;1.90;55.12;98512.69;2637700;28;20059;-82
2022/01/31 00:03:42;;;;;;;7.35;2.03;;;;;;;1.87;54.69;98507.50;2638337;28;20044;-82
2022/01/31 00:04:58;;;;;;;12.38;2.33;;;;;;;1.85;54.86;98514.38;2637767;28;20105;-82
2022/01/31 00:06:13;;;;;;;9.15;1.65;;;;;;;1.83;55.10;98509.19;2637720;28;20427;-83
2022/01/31 00:07:29;;;;;;;7.20;1.38;;;;;;;1.83;54.39;98502.31;2637870;28;20109;-83
2022/01/31 00:08:45;;;;;;;8.80;2.53;;;;;;;1.90;54.16;98503.22;2638090;28;20047;-83
2022/01/31 00:10:06;;;;;;;16.20;2.25;;;;;;;1.87;54.86;98503.19;2638076;27;20047;-83
2022/01/31 00:11:22;;;;;;;12.25;1.70;;;;;;;1.83;55.40;98506.59;2638187;28;20055;-83
2022/01/31 00:12:52;;;;;;;10.13;2.05;;;;;;;1.85;55.09;98499.72;2636967;28;20043;-85
2022/01/31 00:14:16;;;;;;;14.88;2.75;;;;;;;1.86;55.79;98498.88;2637814;28;20047;-82
2022/01/31 00:15:36;;;;;;;13.60;2.70;;;;;;;1.79;55.56;98495.38;2638106;28;20047;-85
2022/01/31 00:16:52;;;;;;;20.27;3.28;;;;;;;1.75;55.83;98488.47;2638075;28;20094;-88
2022/01/31 00:18:08;;;;;;;16.45;3.90;;;;;;;1.73;55.73;98482.44;2637612;28;20528;-84
2022/01/31 00:19:24;;;;;;;14.77;2.45;;;;;;;1.72;55.43;98472.97;2637665;28;20100;-86
2022/01/31 00:20:39;;;;;;;12.13;3.03;;;;;;;1.74;55.38;98470.38;2637434;28;20051;-83
2022/01/31 00:21:55;;;;;;;20.90;2.83;;;;;;;1.73;55.30;98471.22;2638067;28;20439;-83
2022/01/31 00:23:11;;;;;;;21.65;3.97;;;;;;;1.66;55.88;98468.59;2637789;28;20440;-82
2022/01/31 00:24:26;;;;;;;10.13;2.45;;;;;;;1.68;55.99;98468.63;2637339;28;20063;-83
2022/01/31 00:25:42;;;;;;;19.70;2.47;;;;;;;1.67;55.59;98462.59;2637926;28;20047;-82
2022/01/31 00:26:57;;;;;;;12.48;1.73;;;;;;;1.70;55.09;98464.34;2637610;28;20059;-83
2022/01/31 00:28:14;;;;;;;12.70;1.80;;;;;;;1.74;54.64;98465.22;2637847;28;20497;-83
2022/01/31 00:29:29;;;;;;;15.15;2.05;;;;;;;1.75;54.49;98466.97;2637635;28;20055;-86
2022/01/31 00:30:46;;;;;;;17.05;2.30;;;;;;;1.74;54.72;98468.66;2637636;28;20071;-81
2022/01/31 00:32:02;;;;;;;15.27;2.40;;;;;;;1.68;54.64;98466.06;2637754;28;20254;-83
2022/01/31 00:33:18;;;;;;;17.98;2.15;;;;;;;1.69;54.84;98462.63;2637358;28;20413;-85
2022/01/31 00:34:34;;;;;;;13.90;2.42;;;;;;;1.68;54.84;98460.88;2637945;28;20039;-84
2022/01/31 00:35:49;;;;;;;15.65;2.67;;;;;;;1.77;54.02;98457.50;2637462;28;20082;-84
2022/01/31 00:37:05;;;;;;;12.25;1.77;;;;;;;1.76;54.19;98448.88;2638040;28;20064;-83
2022/01/31 00:38:20;;;;;;;12.27;2.08;;;;;;;1.79;54.06;98460.97;2637449;28;20059;-82
2022/01/31 00:39:37;;;;;;;15.20;2.60;;;;;;;1.76;54.55;98461.81;2637756;28;20073;-83
2022/01/31 00:40:52;;;;;;;10.55;2.00;;;;;;;1.76;54.36;98455.78;2637664;28;20047;-83
2022/01/31 00:42:08;;;;;;;11.90;2.80;;;;;;;1.70;54.73;98448.84;2637717;28;20139;-84
2022/01/31 00:43:23;;;;;;;13.02;2.38;;;;;;;1.69;54.60;98452.28;2637399;28;20059;-82
2022/01/31 00:44:49;;;;;;;9.10;2.13;;;;;;;1.66;54.15;98462.56;2637152;28;20059;-85
2022/01/31 00:46:11;;;;;;;20.05;3.13;;;;;;;1.66;54.53;98454.81;2637262;28;20400;-83
2022/01/31 00:47:31;;;;;;;7.10;2.33;;;;;;;1.66;54.58;98437.63;2637809;28;20058;-84
2022/01/31 00:48:47;;;;;;;7.65;2.22;;;;;;;1.70;54.87;98433.38;2637590;28;20059;-85
2022/01/31 00:50:11;;;;;;;11.00;2.95;;;;;;;1.74;54.13;98427.38;2637133;28;20108;-85
2022/01/31 00:51:27;;;;;;;19.33;2.60;;;;;;;1.72;54.16;98438.53;2637209;28;20055;-84
2022/01/31 00:52:44;;;;;;;13.55;2.72;;;;;;;1.66;54.07;98437.63;2637837;28;20418;-82
2022/01/31 00:54:00;;;;;;;8.73;2.38;;;;;;;1.72;53.82;98430.78;2637343;28;20059;-82
2022/01/31 00:55:16;;;;;;;12.25;1.90;;;;;;;1.71;54.26;98429.94;2637701;28;20051;-83
2022/01/31 00:56:31;;;;;;;16.45;2.40;;;;;;;1.69;54.13;98429.91;2636840;28;20059;-84
2022/01/31 00:57:47;;;;;;;17.75;3.08;;;;;;;1.63;54.69;98418.69;2637606;28;20055;-84
2022/01/31 00:59:03;;;;;;;14.90;2.22;;;;;;;1.61;54.90;98421.25;2637352;28;20101;-83
2022/01/31 01:00:18;;;;;;;10.00;2.08;;;;;;;1.59;54.62;98419.50;2637204;28;20053;-81
2022/01/31 01:01:34;;;;;;;10.32;2.10;;;;;;;1.60;55.03;98410.91;2636575;28;20051;-83
2022/01/31 01:02:49;;;;;;;15.10;2.45;;;;;;;1.59;54.79;98410.03;2637532;28;20059;-82
2022/01/31 01:04:05;;;;;;;11.07;2.70;;;;;;;1.58;55.04;98415.22;2637127;28;20058;-82
2022/01/31 01:05:21;;;;;;;16.25;2.60;;;;;;;1.55;55.30;98416.03;2636708;28;20051;-82
2022/01/31 01:06:36;;;;;;;20.33;2.97;;;;;;;1.55;55.07;98427.25;2636713;28;20120;-83
2022/01/31 01:07:52;;;;;;;16.80;2.35;;;;;;;1.54;55.19;98422.94;2637144;28;20082;-82
2022/01/31 01:09:08;;;;;;;19.33;2.85;;;;;;;1.58;54.63;98430.69;2637328;28;20150;-83
2022/01/31 01:10:23;;;;;;;9.23;2.15;;;;;;;1.59;54.56;98419.50;2637543;28;20067;-83
2022/01/31 01:11:39;;;;;;;16.20;2.45;;;;;;;1.55;54.59;98401.44;2637082;28;20052;-86
2022/01/31 01:12:55;;;;;;;15.48;2.38;;;;;;;1.55;54.75;98403.13;2637384;28;20077;-82
2022/01/31 01:14:10;;;;;;;10.77;2.30;;;;;;;1.54;54.62;98396.25;2637446;28;20570;-82
2022/01/31 01:15:26;;;;;;;14.82;3.33;;;;;;;1.54;54.75;98396.25;2637238;28;20052;-82
2022/01/31 01:16:42;;;;;;;15.93;2.42;;;;;;;1.52;54.87;98401.38;2637668;28;20047;-82
2022/01/31 01:17:58;;;;;;;15.07;3.08;;;;;;;1.51;55.08;98409.97;2636928;28;20047;-82
2022/01/31 01:19:14;;;;;;;16.83;2.90;;;;;;;1.49;55.20;98413.44;2637250;28;20132;-84
2022/01/31 01:20:30;;;;;;;19.05;2.60;;;;;;;1.49;55.61;98406.53;2637315;28;20055;-83
2022/01/31 01:21:45;;;;;;;12.10;2.80;;;;;;;1.48;55.12;98406.53;2637324;28;20092;-83
2022/01/31 01:23:01;;;;;;;14.63;2.35;;;;;;;1.47;54.96;98412.56;2637694;28;20435;-82
2022/01/31 01:24:16;;;;;;;18.25;2.58;;;;;;;1.50;55.38;98413.41;2637555;28;20055;-82
2022/01/31 01:25:33;;;;;;;17.13;2.22;;;;;;;1.47;55.48;98409.97;2636835;28;20096;-82
2022/01/31 01:26:49;;;;;;;12.73;2.13;;;;;;;1.45;55.21;98412.53;2637641;28;20043;-82
2022/01/31 01:28:04;;;;;;;15.30;2.33;;;;;;;1.46;54.76;98398.78;2636761;28;20079;-82
2022/01/31 01:29:20;;;;;;;12.20;2.40;;;;;;;1.43;54.95;98390.13;2637702;28;20096;-82
2022/01/31 01:30:36;;;;;;;14.00;2.58;;;;;;;1.47;55.05;98385.03;2637305;28;20043;-83
2022/01/31 01:31:52;;;;;;;12.50;2.10;;;;;;;1.50;54.46;98379.88;2637643;28;20445;-82
2022/01/31 01:33:17;;;;;;;20.38;2.70;;;;;;;1.51;54.43;98371.28;2637076;28;20066;-88
2022/01/31 01:34:34;;;;;;;12.95;2.97;;;;;;;1.53;54.62;98372.16;2637414;28;20240;-83
2022/01/31 01:35:53;;;;;;;11.10;2.25;;;;;;;1.51;55.33;98373.84;2636819;28;20139;-82
2022/01/31 01:37:09;;;;;;;13.55;2.13;;;;;;;1.50;54.95;98364.41;2637227;28;20551;-82
2022/01/31 01:38:28;;;;;;;15.60;2.47;;;;;;;1.46;55.08;98356.63;2637263;28;20050;-82
2022/01/31 01:39:46;;;;;;;8.15;1.40;;;;;;;1.47;55.03;98354.06;2636648;28;20097;-82
2022/01/31 01:41:02;;;;;;;11.00;2.13;;;;;;;1.46;54.58;98347.16;2637371;28;20075;-82
2022/01/31 01:42:17;;;;;;;14.75;2.33;;;;;;;1.47;55.28;98343.75;2636742;28;20054;-82
2022/01/31 01:43:33;;;;;;;17.65;2.30;;;;;;;1.46;54.83;98343.72;2637041;28;20349;-82
2022/01/31 01:44:51;;;;;;;17.13;2.67;;;;;;;1.47;55.53;98336.00;2636583;28;20044;-83
2022/01/31 01:46:06;;;;;;;9.98;2.10;;;;;;;1.48;54.77;98334.28;2636609;28;20075;-83
2022/01/31 01:47:24;;;;;;;12.88;2.17;;;;;;;1.42;55.20;98329.94;2636867;28;20497;-82
2022/01/31 01:48:40;;;;;;;12.90;1.92;;;;;;;1.45;55.15;98323.94;2637000;28;20056;-83
2022/01/31 01:49:55;;;;;;;16.80;2.78;;;;;;;1.44;54.98;98310.19;2637356;28;20079;-82
2022/01/31 01:51:12;;;;;;;11.32;2.58;;;;;;;1.44;55.46;98307.59;2636862;28;20094;-84
2022/01/31 01:52:28;;;;;;;16.50;3.42;;;;;;;1.38;55.29;98313.59;2637106;28;20066;-87
2022/01/31 01:53:43;;;;;;;16.30;2.50;;;;;;;1.38;55.56;98307.53;2637103;28;20497;-83
2022/01/31 01:55:00;;;;;;;14.27;3.05;;;;;;;1.40;55.21;98303.28;2637493;28;20453;-82
2022/01/31 01:56:15;;;;;;;10.82;1.80;;;;;;;1.40;55.92;98301.56;2637079;28;20588;-87
2022/01/31 01:57:31;;;;;;;17.63;2.53;;;;;;;1.38;55.01;98302.38;2638412;28;20429;-85
2022/01/31 01:58:48;;;;;;;12.27;2.17;;;;;;;1.38;55.42;98297.22;2638461;28;20433;-82
2022/01/31 02:00:07;;;;;;;10.90;2.42;;;;;;;1.39;55.46;98298.94;2639109;28;20047;-82
2022/01/31 02:01:23;;;;;;;9.57;2.38;;;;;;;1.31;55.82;98285.16;2638972;28;20055;-82
2022/01/31 02:02:38;;;;;;;13.85;2.38;;;;;;;1.35;55.96;98286.91;2639222;28;20128;-82
2022/01/31 02:03:54;;;;;;;16.95;2.20;;;;;;;1.32;55.68;98271.41;2638950;28;20055;-86
2022/01/31 02:05:09;;;;;;;13.93;2.15;;;;;;;1.30;56.31;98267.97;2639346;28;20143;-83
2022/01/31 02:06:25;;;;;;;10.35;2.67;;;;;;;1.33;55.70;98267.97;2639350;28;20044;-82
2022/01/31 02:07:41;;;;;;;20.38;2.95;;;;;;;1.32;56.05;98272.25;2638821;28;20047;-87
2022/01/31 02:08:56;;;;;;;18.17;2.55;;;;;;;1.33;55.90;98260.22;2639166;28;20105;-83
2022/01/31 02:10:14;;;;;;;17.23;3.05;;;;;;;1.25;56.18;98266.19;2639242;27;20056;-83
2022/01/31 02:11:30;;;;;;;10.70;1.92;;;;;;;1.30;56.34;98253.31;2639134;28;20058;-82
2022/01/31 02:12:47;;;;;;;14.35;2.42;;;;;;;1.29;56.21;98251.59;2638926;28;20546;-87
2022/01/31 02:14:03;;;;;;;12.45;2.63;;;;;;;1.32;56.30;98255.94;2639442;28;20462;-83
2022/01/31 02:15:23;;;;;;;11.90;1.83;;;;;;;1.29;56.44;98246.44;2638388;28;20131;-84
2022/01/31 02:16:39;;;;;;;11.82;2.65;;;;;;;1.29;56.20;98249.03;2639720;28;20538;-82
2022/01/31 02:17:54;;;;;;;11.45;2.13;;;;;;;1.25;56.71;98245.56;2639224;28;20128;-82
2022/01/31 02:19:14;;;;;;;13.13;2.63;;;;;;;1.25;57.27;98231.81;2638975;28;20092;-82
2022/01/31 02:20:31;;;;;;;15.98;2.53;;;;;;;1.26;56.67;98229.25;2638728;28;20497;-84
2022/01/31 02:21:50;;;;;;;13.05;2.50;;;;;;;1.25;56.81;98218.91;2639284;28;20051;-82
2022/01/31 02:23:08;;;;;;;14.77;2.85;;;;;;;1.23;57.79;98211.16;2636704;28;20047;-83
2022/01/31 02:24:24;;;;;;;16.85;3.00;;;;;;;1.22;57.15;98198.28;2638631;28;20509;-82
2022/01/31 02:26:01;;;;;;;21.92;3.38;;;;;;;1.24;56.74;98204.31;2639099;28;20137;-83
2022/01/31 02:27:30;;;;;;;14.02;2.15;;;;;;;1.25;56.50;98203.44;2638533;28;20077;-82
2022/01/31 02:28:45;;;;;;;16.08;2.17;;;;;;;1.27;56.50;98194.88;2639132;28;20055;-81
2022/01/31 02:30:05;;;;;;;13.50;2.45;;;;;;;1.31;56.13;98184.56;2638588;28;20635;-81
2022/01/31 02:31:21;;;;;;;13.65;2.30;;;;;;;1.28;56.65;98172.50;2639006;28;20096;-82
2022/01/31 02:32:36;;;;;;;10.60;2.97;;;;;;;1.23;56.78;98164.75;2638580;28;20101;-81
2022/01/31 02:33:52;;;;;;;15.00;3.17;;;;;;;1.23;57.22;98164.75;2638279;28;20445;-82
2022/01/31 02:35:08;;;;;;;18.70;2.55;;;;;;;1.19;57.03;98157.84;2638748;28;20089;-81
2022/01/31 02:36:24;;;;;;;15.93;3.05;;;;;;;1.19;57.22;98152.69;2638984;28;20070;-80
2022/01/31 02:37:40;;;;;;;15.13;2.60;;;;;;;1.19;56.95;98144.97;2638696;28;20048;-83
2022/01/31 02:38:55;;;;;;;19.73;2.80;;;;;;;1.18;57.09;98143.25;2638407;28;20044;-82
2022/01/31 02:40:11;;;;;;;15.63;2.92;;;;;;;1.18;57.10;98140.66;2638567;28;20051;-82
2022/01/31 02:41:30;;;;;;;17.30;2.42;;;;;;;1.17;57.25;98131.19;2638539;28;20055;-84
2022/01/31 02:42:46;;;;;;;17.85;3.17;;;;;;;1.18;57.27;98132.06;2639040;28;20051;-83
2022/01/31 02:44:01;;;;;;;17.13;2.90;;;;;;;1.14;57.26;98120.88;2638944;28;20058;-81
2022/01/31 02:45:17;;;;;;;15.73;3.00;;;;;;;1.11;57.24;98115.69;2638621;28;20056;-81
2022/01/31 02:46:33;;;;;;;19.13;2.97;;;;;;;1.16;57.67;98115.72;2639358;28;20051;-81
2022/01/31 02:47:55;;;;;;;22.42;3.22;;;;;;;1.06;57.13;98125.13;2637450;28;20097;-81
2022/01/31 02:49:13;;;;;;;11.75;2.42;;;;;;;1.04;57.41;98122.53;2638369;28;20059;-81
2022/01/31 02:50:29;;;;;;;15.35;3.00;;;;;;;1.10;57.50;98122.56;2638151;28;20044;-81
2022/01/31 02:51:49;;;;;;;11.10;2.90;;;;;;;1.02;57.88;98121.66;2638869;28;20130;-82
2022/01/31 02:53:29;;;;;;;11.30;2.10;;;;;;;1.00;58.02;98123.38;2639029;28;20526;-82
2022/01/31 02:54:45;;;;;;;12.48;2.15;;;;;;;1.04;58.19;98116.53;2638772;28;20075;-85
2022/01/31 02:56:01;;;;;;;12.82;3.35;;;;;;;1.10;57.90;98111.38;2638273;28;20063;-81
2022/01/31 02:57:17;;;;;;;19.65;2.67;;;;;;;1.09;57.74;98112.25;2638594;28;20062;-81
2022/01/31 02:58:33;;;;;;;19.92;3.30;;;;;;;1.05;58.09;98106.22;2638826;28;20047;-81
2022/01/31 02:59:48;;;;;;;20.80;3.33;;;;;;;1.04;58.11;98101.91;2638887;28;20420;-81
2022/01/31 03:01:04;;;;;;;11.02;2.30;;;;;;;1.03;58.20;98109.66;2638758;28;20044;-81
2022/01/31 03:02:20;;;;;;;13.77;2.30;;;;;;;0.98;58.69;98102.75;2638727;27;20431;-82
2022/01/31 03:03:36;;;;;;;14.63;2.72;;;;;;;1.06;58.87;98107.06;2637777;28;20043;-82
2022/01/31 03:04:51;;;;;;;11.40;2.75;;;;;;;1.07;58.66;98116.53;2638539;28;20051;-83
2022/01/31 03:06:06;;;;;;;17.38;2.10;;;;;;;1.07;58.16;98111.38;2638444;28;20550;-82
2022/01/31 03:07:22;;;;;;;15.93;2.40;;;;;;;1.09;58.42;98115.69;2638388;28;20098;-81
2022/01/31 03:08:38;;;;;;;16.73;2.50;;;;;;;1.08;58.46;98105.38;2638644;28;20470;-81
2022/01/31 03:09:53;;;;;;;14.63;2.50;;;;;;;1.09;59.00;98104.50;2638638;28;20036;-82
2022/01/31 03:11:09;;;;;;;17.15;2.67;;;;;;;1.10;59.06;98101.06;2638445;28;20049;-81
2022/01/31 03:12:25;;;;;;;14.02;2.90;;;;;;;1.10;59.34;98098.50;2638719;28;20085;-84
2022/01/31 03:13:40;;;;;;;16.80;2.45;;;;;;;1.09;59.11;98095.06;2638636;28;20044;-82
2022/01/31 03:14:56;;;;;;;21.60;2.88;;;;;;;1.13;59.30;98090.78;2638166;28;20386;-82
2022/01/31 03:16:11;;;;;;;15.55;2.58;;;;;;;1.06;59.31;98083.88;2638746;28;20054;-82
2022/01/31 03:17:27;;;;;;;15.30;2.20;;;;;;;1.06;59.20;98076.16;2638346;28;20059;-82
2022/01/31 03:18:42;;;;;;;13.52;2.78;;;;;;;1.05;59.52;98077.00;2637952;28;20043;-85
2022/01/31 03:19:58;;;;;;;16.95;3.38;;;;;;;1.06;59.77;98073.56;2638594;28;20153;-82
2022/01/31 03:21:14;;;;;;;16.45;2.85;;;;;;;1.05;59.55;98066.69;2638004;28;20058;-82
2022/01/31 03:22:30;;;;;;;22.55;2.50;;;;;;;1.03;59.94;98069.25;2638608;28;20047;-82
2022/01/31 03:23:49;;;;;;;11.40;2.33;;;;;;;1.02;59.94;98069.25;2638874;28;20047;-84
2022/01/31 03:25:05;;;;;;;11.80;2.30;;;;;;;1.09;59.95;98061.56;2637887;28;20132;-85
2022/01/31 03:26:20;;;;;;;14.35;2.30;;;;;;;1.12;60.34;98053.81;2637924;28;20075;-81
2022/01/31 03:27:37;;;;;;;13.07;2.65;;;;;;;1.08;59.99;98046.06;2638159;28;20419;-84
2022/01/31 03:28:53;;;;;;;18.50;3.20;;;;;;;1.08;60.33;98043.50;2638324;28;20047;-81
2022/01/31 03:30:14;;;;;;;18.52;3.30;;;;;;;1.05;60.62;98031.47;2638505;28;20043;-85
2022/01/31 03:31:30;;;;;;;12.40;2.55;;;;;;;1.10;60.96;98028.88;2638383;28;20692;-81
2022/01/31 03:32:47;;;;;;;16.50;2.33;;;;;;;1.08;60.84;98025.44;2638284;28;20052;-82
2022/01/31 03:34:03;;;;;;;12.40;2.95;;;;;;;1.05;60.86;98021.16;2637961;28;20466;-84
2022/01/31 03:35:19;;;;;;;16.25;2.40;;;;;;;1.00;60.88;98011.69;2638041;28;20052;-82
2022/01/31 03:36:34;;;;;;;12.65;2.45;;;;;;;1.05;60.66;98009.97;2638096;28;20508;-81
2022/01/31 03:37:50;;;;;;;14.68;2.83;;;;;;;1.06;61.00;98006.53;2637322;28;20521;-88
2022/01/31 03:39:06;;;;;;;14.75;3.05;;;;;;;1.00;61.23;97997.06;2637968;28;20047;-83
2022/01/31 03:40:21;;;;;;;13.98;2.63;;;;;;;1.01;60.87;97979.88;2638438;28;20051;-84
2022/01/31 03:41:38;;;;;;;11.05;2.72;;;;;;;0.99;61.27;97979.88;2638493;28;20391;-80
2022/01/31 03:42:54;;;;;;;13.52;2.53;;;;;;;0.96;61.59;97975.56;2638537;28;20047;-84
2022/01/31 03:44:09;;;;;;;15.52;3.38;;;;;;;0.98;61.64;97980.72;2638068;28;20058;-82
2022/01/31 03:45:27;;;;;;;20.95;3.72;;;;;;;0.94;61.83;97981.59;2638022;28;20102;-82
2022/01/31 03:46:42;;;;;;;15.73;3.33;;;;;;;1.00;61.72;97971.28;2638142;28;20167;-84
2022/01/31 03:48:00;;;;;;;17.60;3.55;;;;;;;1.02;61.68;97973.88;2637829;27;20054;-83
2022/01/31 03:49:16;;;;;;;17.10;2.63;;;;;;;1.05;61.56;97968.72;2637719;28;20046;-83
2022/01/31 03:50:31;;;;;;;13.60;2.47;;;;;;;1.02;61.75;97969.56;2637240;28;20047;-83
2022/01/31 03:51:46;;;;;;;17.85;3.20;;;;;;;1.01;61.80;97972.16;2637515;28;20059;-83
2022/01/31 03:53:02;;;;;;;12.43;3.40;;;;;;;1.04;61.27;97962.69;2636337;28;20039;-83
2022/01/31 03:54:18;;;;;;;19.13;3.20;;;;;;;0.99;61.61;97969.56;2637259;28;20055;-82
2022/01/31 03:55:33;;;;;;;17.10;2.92;;;;;;;1.00;61.44;97967.84;2637641;28;20065;-83
2022/01/31 03:56:49;;;;;;;15.93;3.15;;;;;;;1.02;61.74;97961.00;2637583;28;20077;-83
2022/01/31 03:58:05;;;;;;;14.27;3.17;;;;;;;0.99;61.65;97951.53;2637057;28;20079;-84
2022/01/31 03:59:20;;;;;;;9.75;3.10;;;;;;;1.06;61.62;97954.97;2637405;28;20103;-83
2022/01/31 04:00:36;;;;;;;14.38;2.75;;;;;;;1.03;61.45;97957.56;2637537;28;20104;-82
2022/01/31 04:01:51;;;;;;;12.73;3.22;;;;;;;1.02;61.45;97954.09;2636987;28;20039;-83
2022/01/31 04:03:08;;;;;;;15.35;3.03;;;;;;;1.01;61.55;97952.38;2637553;28;20425;-83
2022/01/31 04:04:23;;;;;;;17.30;2.88;;;;;;;0.98;61.95;97937.78;2636824;28;20048;-82
2022/01/31 04:05:39;;;;;;;18.30;3.33;;;;;;;0.98;61.79;97935.22;2637424;28;20088;-83
2022/01/31 04:06:54;;;;;;;20.38;3.65;;;;;;;0.97;61.75;97943.78;2637582;28;20394;-82
2022/01/31 04:08:12;;;;;;;12.45;2.60;;;;;;;0.96;62.16;97934.31;2637407;28;20112;-84
2022/01/31 04:09:27;;;;;;;18.48;3.05;;;;;;;0.93;62.32;97930.91;2637701;28;20481;-82
2022/01/31 04:10:43;;;;;;;13.55;2.95;;;;;;;0.91;62.08;97938.63;2637693;28;20044;-82
2022/01/31 04:11:58;;;;;;;12.98;2.78;;;;;;;0.94;61.99;97941.19;2637982;28;20043;-82
2022/01/31 04:13:16;;;;;;;12.07;2.83;;;;;;;0.91;62.25;97941.19;2637569;28;20050;-82
2022/01/31 04:14:32;;;;;;;16.35;2.63;;;;;;;0.98;62.09;97942.06;2638256;28;20055;-83
2022/01/31 04:15:47;;;;;;;13.30;2.88;;;;;;;0.95;61.76;97944.66;2637987;28;20472;-82
2022/01/31 04:17:07;;;;;;;14.05;2.40;;;;;;;0.97;62.28;97948.06;2637974;28;20040;-82
2022/01/31 04:18:23;;;;;;;15.60;3.45;;;;;;;0.95;61.98;97948.06;2637717;28;20516;-82
2022/01/31 04:19:38;;;;;;;10.43;2.70;;;;;;;0.93;62.15;97948.94;2637183;28;20093;-83
2022/01/31 04:20:54;;;;;;;17.38;3.42;;;;;;;0.88;62.25;97956.66;2635972;28;20051;-83
2022/01/31 04:22:14;;;;;;;13.70;2.28;;;;;;;0.88;62.17;97951.50;2636821;28;20506;-82
2022/01/31 04:23:30;;;;;;;18.55;3.80;;;;;;;0.88;62.12;97948.03;2637200;28;20055;-82
2022/01/31 04:24:48;;;;;;;16.35;3.17;;;;;;;0.86;62.22;97950.63;2637636;28;20082;-86
2022/01/31 04:26:21;;;;;;;13.38;3.20;;;;;;;0.85;62.32;97959.22;2637447;28;20055;-82
2022/01/31 04:27:44;;;;;;;16.52;3.78;;;;;;;0.87;62.25;97949.78;2637484;28;20613;-83
2022/01/31 04:29:07;;;;;;;12.77;2.33;;;;;;;0.94;62.17;97946.34;2637990;28;20051;-85
2022/01/31 04:30:22;;;;;;;8.95;2.58;;;;;;;0.93;61.88;97947.19;2637811;28;20048;-85
2022/01/31 04:31:40;;;;;;;14.95;2.80;;;;;;;0.96;62.14;97939.47;2638000;28;20049;-81
2022/01/31 04:32:55;;;;;;;12.10;2.13;;;;;;;0.95;62.08;97936.91;2635740;28;20556;-81
2022/01/31 04:34:11;;;;;;;15.93;3.55;;;;;;;0.91;61.88;97933.47;2637093;28;20563;-81
2022/01/31 04:35:27;;;;;;;12.45;2.75;;;;;;;0.90;62.32;97924.00;2638001;28;20112;-83
2022/01/31 04:36:42;;;;;;;16.60;3.70;;;;;;;0.80;62.53;97917.97;2638009;28;20047;-83
2022/01/31 04:37:58;;;;;;;20.65;3.25;;;;;;;0.80;62.49;97912.81;2637894;28;20055;-81
2022/01/31 04:39:17;;;;;;;12.82;3.22;;;;;;;0.80;62.42;97912.81;2637780;28;20054;-82
2022/01/31 04:40:33;;;;;;;16.27;4.28;;;;;;;0.76;62.40;97905.91;2638146;28;20048;-82
2022/01/31 04:41:50;;;;;;;10.40;3.45;;;;;;;0.77;62.64;97893.91;2637570;28;20134;-84
2022/01/31 04:43:06;;;;;;;15.90;2.90;;;;;;;0.72;62.85;97890.47;2637541;28;20066;-81
2022/01/31 04:44:22;;;;;;;8.40;2.30;;;;;;;0.76;62.62;97884.47;2637331;28;20067;-82
2022/01/31 04:45:38;;;;;;;9.52;2.53;;;;;;;0.80;62.68;97884.47;2636836;28;20085;-80
2022/01/31 04:46:54;;;;;;;14.15;2.70;;;;;;;0.83;62.42;97879.31;2636876;28;20089;-80
2022/01/31 04:48:10;;;;;;;16.98;3.42;;;;;;;0.78;62.49;97882.75;2637079;28;20541;-80
2022/01/31 04:49:26;;;;;;;13.50;3.47;;;;;;;0.79;62.49;97881.88;2637089;28;20058;-80
2022/01/31 04:50:43;;;;;;;16.17;3.42;;;;;;;0.75;62.96;97885.31;2637025;28;20053;-80
2022/01/31 04:51:58;;;;;;;11.95;3.40;;;;;;;0.77;62.38;97884.47;2637001;28;20044;-83
2022/01/31 04:53:14;;;;;;;15.60;2.90;;;;;;;0.76;62.73;97880.16;2637203;28;20520;-82
2022/01/31 04:54:30;;;;;;;9.27;2.92;;;;;;;0.80;62.58;97871.59;2637301;28;20139;-82
2022/01/31 04:55:46;;;;;;;15.20;3.05;;;;;;;0.83;62.52;97862.97;2637040;28;20546;-80
2022/01/31 04:57:02;;;;;;;11.80;2.50;;;;;;;0.82;62.40;97859.56;2637669;28;20121;-80
2022/01/31 04:58:17;;;;;;;14.40;2.83;;;;;;;0.77;62.66;97860.41;2637358;28;20058;-79
2022/01/31 04:59:40;;;;;;;18.75;3.40;;;;;;;0.75;62.99;97852.66;2637330;28;20051;-85
2022/01/31 05:00:55;;;;;;;;;;;;;;;0.79;62.61;97856.13;2637820;28;20096;-86
2022/01/31 05:02:11;;;;;;;15.05;2.97;;;;;;;0.80;62.42;97845.81;2637633;28;20530;-83
2022/01/31 05:03:26;;;;;;;15.43;3.13;;;;;;;0.79;62.86;97845.81;2637038;28;20103;-81
2022/01/31 05:04:42;;;;;;;11.90;3.08;;;;;;;0.78;62.95;97839.81;2637324;28;20350;-82
2022/01/31 05:05:58;;;;;;;13.52;3.05;;;;;;;0.79;62.72;97838.94;2637523;28;20055;-82
2022/01/31 05:07:13;;;;;;;14.32;3.13;;;;;;;0.76;62.78;97828.63;2637321;28;20054;-81
2022/01/31 05:08:29;;;;;;;9.68;2.80;;;;;;;0.76;62.80;97820.03;2637219;28;20100;-80
2022/01/31 05:09:45;;;;;;;14.15;3.15;;;;;;;0.74;62.63;97814.03;2636733;28;20073;-81
2022/01/31 05:11:01;;;;;;;14.18;2.80;;;;;;;0.78;62.97;97808.88;2637893;28;20436;-81
2022/01/31 05:12:17;;;;;;;14.55;4.07;;;;;;;0.74;62.76;97803.72;2636839;28;20078;-80
2022/01/31 05:13:33;;;;;;;12.95;2.85;;;;;;;0.72;62.51;97797.72;2636889;28;20451;-87
2022/01/31 05:14:48;;;;;;;11.38;3.47;;;;;;;0.65;62.94;97799.41;2637539;28;20053;-81
2022/01/31 05:16:04;;;;;;;12.55;3.15;;;;;;;0.74;62.59;97803.72;2637813;28;20048;-81
2022/01/31 05:17:20;;;;;;;11.70;3.60;;;;;;;0.72;62.81;97797.72;2637691;28;20553;-81
2022/01/31 05:18:35;;;;;;;14.20;3.05;;;;;;;0.67;62.81;97788.25;2637500;28;20082;-81
2022/01/31 05:19:51;;;;;;;10.32;3.20;;;;;;;0.65;62.77;97799.41;2637581;28;20052;-81
2022/01/31 05:21:08;;;;;;;16.48;3.00;;;;;;;0.67;62.90;97803.69;2637677;28;20048;-80
2022/01/31 05:22:24;;;;;;;15.45;2.90;;;;;;;0.64;62.93;97788.25;2637183;28;20043;-81
2022/01/31 05:23:39;;;;;;;17.38;3.80;;;;;;;0.64;62.87;97788.25;2637412;28;20390;-81
2022/01/31 05:24:55;;;;;;;13.55;3.10;;;;;;;0.67;63.05;97774.53;2637561;28;20059;-80
2022/01/31 05:26:10;;;;;;;14.23;3.22;;;;;;;0.65;63.08;97769.34;2637509;28;20047;-85
2022/01/31 05:27:26;;;;;;;13.10;3.33;;;;;;;0.65;63.39;97769.34;2637081;28;20454;-82
2022/01/31 05:28:42;;;;;;;12.20;3.22;;;;;;;0.63;63.43;97763.34;2637505;28;20514;-81
2022/01/31 05:29:58;;;;;;;12.05;3.40;;;;;;;0.62;63.07;97753.91;2636305;28;20051;-83
2022/01/31 05:31:13;;;;;;;10.45;2.92;;;;;;;0.65;63.69;97748.75;2637749;28;20039;-82
2022/01/31 05:32:29;;;;;;;12.60;2.78;;;;;;;0.62;63.46;97732.41;2639062;28;20044;-80
2022/01/31 05:33:44;;;;;;;14.20;3.40;;;;;;;0.61;63.50;97726.41;2639723;28;20043;-81
2022/01/31 05:35:01;;;;;;;12.70;3.65;;;;;;;0.61;63.07;97734.16;2639423;27;20444;-80
2022/01/31 05:36:17;;;;;;;11.30;3.20;;;;;;;0.61;63.25;97729.00;2639238;28;20048;-81
2022/01/31 05:37:33;;;;;;;16.73;3.05;;;;;;;0.59;63.51;97727.28;2638976;28;20460;-81
2022/01/31 05:38:48;;;;;;;14.27;3.35;;;;;;;0.59;63.43;97728.13;2639128;28;20047;-80
2022/01/31 05:40:06;;;;;;;11.80;3.30;;;;;;;0.63;63.60;97732.44;2639152;28;20054;-81
2022/01/31 05:41:21;;;;;;;18.45;4.50;;;;;;;0.62;63.58;97738.44;2637382;28;20051;-84
2022/01/31 05:42:37;;;;;;;11.40;3.30;;;;;;;0.59;63.20;97747.88;2638898;28;20039;-85
2022/01/31 05:43:53;;;;;;;13.07;3.08;;;;;;;0.65;63.64;97743.59;2638594;28;20064;-81
2022/01/31 05:45:09;;;;;;;13.85;3.75;;;;;;;0.65;63.55;97737.59;2638972;28;20055;-80
2022/01/31 05:46:24;;;;;;;13.30;3.35;;;;;;;0.62;63.62;97733.28;2638942;28;20039;-80
2022/01/31 05:47:40;;;;;;;14.18;2.67;;;;;;;0.63;63.31;97732.44;2639131;28;20062;-80
2022/01/31 05:48:55;;;;;;;19.58;4.22;;;;;;;0.63;63.23;97731.56;2638082;28;20401;-81
2022/01/31 05:50:12;;;;;;;15.95;3.47;;;;;;;0.63;63.60;97727.28;2638909;28;20143;-84
2022/01/31 05:51:27;;;;;;;12.75;3.67;;;;;;;0.60;63.49;97713.53;2639091;28;20616;-84
2022/01/31 05:52:43;;;;;;;17.27;4.38;;;;;;;0.54;63.47;97720.41;2638267;28;20044;-81
2022/01/31 05:53:59;;;;;;;15.77;3.80;;;;;;;0.55;63.55;97721.25;2638321;28;20501;-81
2022/01/31 05:55:15;;;;;;;18.60;4.10;;;;;;;0.53;63.83;97722.97;2638875;28;20032;-80
2022/01/31 05:56:30;;;;;;;20.52;5.38;;;;;;;0.55;63.58;97727.28;2638006;28;20805;-80
2022/01/31 05:57:46;;;;;;;20.17;4.50;;;;;;;0.55;63.70;97716.97;2637900;28;20048;-87
2022/01/31 05:59:01;;;;;;;25.50;4.80;;;;;;;0.57;63.81;97719.56;2638010;28;20089;-82
2022/01/31 06:00:17;;;;;;;17.85;4.30;;;;;;;0.57;63.67;97709.25;2637521;28;20463;-81
2022/01/31 06:01:38;;;;;;;18.42;4.72;;;;;;;0.52;63.75;97709.25;2634996;28;20042;-81